sensor_id;sensor_type;location;lat;lon;timestamp;temperature;humidity
23713;DHT22;12035;49.978;8.298;2022-07-29T00:04:00;27.30;29.70
23713;DHT22;12035;49.978;8.298;2022-07-29T00:08:57;27.10;30.50
23713;DHT22;12035;49.978;8.298;2022-07-29T00:13:56;27.00;30.90
23713;DHT22;12035;49.978;8.298;2022-07-29T00:18:53;26.80;31.00
23713;DHT22;12035;49.978;8.298;2022-07-29T00:23:50;26.70;31.10
23713;DHT22;12035;49.978;8.298;2022-07-29T00:28:47;26.60;31.50
23713;DHT22;12035;49.978;8.298;2022-07-29T00:33:46;26.50;31.80
23713;DHT22;12035;49.978;8.298;2022-07-29T00:38:43;26.40;31.80
23713;DHT22;12035;49.978;8.298;2022-07-29T00:43:41;26.40;31.60
23713;DHT22;12035;49.978;8.298;2022-07-29T00:48:38;26.40;31.80
23713;DHT22;12035;49.978;8.298;2022-07-29T00:53:37;26.40;31.80
23713;DHT22;12035;49.978;8.298;2022-07-29T00:58:34;26.40;33.50
23713;DHT22;12035;49.978;8.298;2022-07-29T01:03:32;26.40;35.90
23713;DHT22;12035;49.978;8.298;2022-07-29T01:08:30;26.30;37.60
23713;DHT22;12035;49.978;8.298;2022-07-29T01:13:30;26.20;39.60
23713;DHT22;12035;49.978;8.298;2022-07-29T01:18:31;26.10;40.50
23713;DHT22;12035;49.978;8.298;2022-07-29T01:23:48;26.00;40.50
23713;DHT22;12035;49.978;8.298;2022-07-29T01:29:02;25.90;42.90
23713;DHT22;12035;49.978;8.298;2022-07-29T01:34:04;25.90;43.30
23713;DHT22;12035;49.978;8.298;2022-07-29T01:39:07;25.90;42.20
23713;DHT22;12035;49.978;8.298;2022-07-29T01:44:13;25.80;42.90
23713;DHT22;12035;49.978;8.298;2022-07-29T01:49:16;25.70;42.30
23713;DHT22;12035;49.978;8.298;2022-07-29T01:54:18;25.60;42.00
23713;DHT22;12035;49.978;8.298;2022-07-29T01:59:18;25.60;43.30
23713;DHT22;12035;49.978;8.298;2022-07-29T02:04:18;25.60;43.00
23713;DHT22;12035;49.978;8.298;2022-07-29T02:09:16;25.60;43.70
23713;DHT22;12035;49.978;8.298;2022-07-29T02:14:15;25.60;43.30
23713;DHT22;12035;49.978;8.298;2022-07-29T02:19:17;25.50;43.50
23713;DHT22;12035;49.978;8.298;2022-07-29T02:24:16;25.50;43.30
23713;DHT22;12035;49.978;8.298;2022-07-29T02:29:15;25.40;42.50
23713;DHT22;12035;49.978;8.298;2022-07-29T02:34:15;25.40;43.00
23713;DHT22;12035;49.978;8.298;2022-07-29T02:39:15;25.30;44.10
23713;DHT22;12035;49.978;8.298;2022-07-29T02:44:15;25.30;42.70
23713;DHT22;12035;49.978;8.298;2022-07-29T02:49:18;25.20;41.90
23713;DHT22;12035;49.978;8.298;2022-07-29T02:54:26;25.10;41.00
23713;DHT22;12035;49.978;8.298;2022-07-29T02:59:30;25.00;41.50
23713;DHT22;12035;49.978;8.298;2022-07-29T03:04:33;24.90;40.90
23713;DHT22;12035;49.978;8.298;2022-07-29T03:09:31;24.80;40.80
23713;DHT22;12035;49.978;8.298;2022-07-29T03:14:30;24.60;40.20
23713;DHT22;12035;49.978;8.298;2022-07-29T03:19:27;24.50;40.10
23713;DHT22;12035;49.978;8.298;2022-07-29T03:24:31;24.30;39.90
23713;DHT22;12035;49.978;8.298;2022-07-29T03:29:29;24.20;40.20
23713;DHT22;12035;49.978;8.298;2022-07-29T03:34:26;24.20;40.00
23713;DHT22;12035;49.978;8.298;2022-07-29T03:39:27;24.10;39.80
23713;DHT22;12035;49.978;8.298;2022-07-29T03:44:28;23.90;39.90
23713;DHT22;12035;49.978;8.298;2022-07-29T03:49:26;23.80;40.00
23713;DHT22;12035;49.978;8.298;2022-07-29T03:54:24;23.70;40.10
23713;DHT22;12035;49.978;8.298;2022-07-29T03:59:23;23.60;40.50
23713;DHT22;12035;49.978;8.298;2022-07-29T04:04:20;23.60;40.50
23713;DHT22;12035;49.978;8.298;2022-07-29T04:09:18;23.50;40.80
23713;DHT22;12035;49.978;8.298;2022-07-29T04:14:15;23.50;40.90
23713;DHT22;12035;49.978;8.298;2022-07-29T04:19:13;23.40;40.90
23713;DHT22;12035;49.978;8.298;2022-07-29T04:24:10;23.40;41.20
23713;DHT22;12035;49.978;8.298;2022-07-29T04:29:08;23.50;41.40
23713;DHT22;12035;49.978;8.298;2022-07-29T04:34:07;23.60;41.90
23713;DHT22;12035;49.978;8.298;2022-07-29T04:39:06;23.70;42.00
23713;DHT22;12035;49.978;8.298;2022-07-29T04:44:03;23.80;43.10
23713;DHT22;12035;49.978;8.298;2022-07-29T04:49:01;24.20;43.90
23713;DHT22;12035;49.978;8.298;2022-07-29T04:53:59;24.70;44.40
23713;DHT22;12035;49.978;8.298;2022-07-29T04:58:57;25.40;43.40
23713;DHT22;12035;49.978;8.298;2022-07-29T05:03:54;26.10;41.90
23713;DHT22;12035;49.978;8.298;2022-07-29T05:08:51;26.70;41.10
23713;DHT22;12035;49.978;8.298;2022-07-29T05:13:49;27.30;40.40
23713;DHT22;12035;49.978;8.298;2022-07-29T05:18:47;27.90;39.40
23713;DHT22;12035;49.978;8.298;2022-07-29T05:23:44;28.40;39.00
23713;DHT22;12035;49.978;8.298;2022-07-29T05:28:41;29.00;38.70
23713;DHT22;12035;49.978;8.298;2022-07-29T05:33:38;29.50;37.50
23713;DHT22;12035;49.978;8.298;2022-07-29T05:38:37;30.00;36.50
23713;DHT22;12035;49.978;8.298;2022-07-29T05:43:34;30.40;36.60
23713;DHT22;12035;49.978;8.298;2022-07-29T05:48:31;31.00;36.60
23713;DHT22;12035;49.978;8.298;2022-07-29T05:53:29;31.50;35.00
23713;DHT22;12035;49.978;8.298;2022-07-29T05:58:28;31.80;33.60
23713;DHT22;12035;49.978;8.298;2022-07-29T06:03:25;32.00;32.90
23713;DHT22;12035;49.978;8.298;2022-07-29T06:08:22;32.00;32.40
23713;DHT22;12035;49.978;8.298;2022-07-29T06:13:19;32.20;31.70
23713;DHT22;12035;49.978;8.298;2022-07-29T06:18:17;32.50;31.10
23713;DHT22;12035;49.978;8.298;2022-07-29T06:23:16;32.90;30.00
23713;DHT22;12035;49.978;8.298;2022-07-29T06:28:16;32.90;29.00
23713;DHT22;12035;49.978;8.298;2022-07-29T06:33:18;33.00;29.50
23713;DHT22;12035;49.978;8.298;2022-07-29T06:38:15;33.20;28.90
23713;DHT22;12035;49.978;8.298;2022-07-29T06:43:12;33.60;28.70
23713;DHT22;12035;49.978;8.298;2022-07-29T06:48:10;33.90;27.80
23713;DHT22;12035;49.978;8.298;2022-07-29T06:53:08;34.20;27.80
23713;DHT22;12035;49.978;8.298;2022-07-29T06:58:05;34.50;27.30
23713;DHT22;12035;49.978;8.298;2022-07-29T07:03:03;34.60;26.80
23713;DHT22;12035;49.978;8.298;2022-07-29T07:08:00;34.80;26.30
23713;DHT22;12035;49.978;8.298;2022-07-29T07:12:59;35.10;26.50
23713;DHT22;12035;49.978;8.298;2022-07-29T07:17:57;35.50;26.30
23713;DHT22;12035;49.978;8.298;2022-07-29T07:22:54;35.80;25.20
23713;DHT22;12035;49.978;8.298;2022-07-29T07:27:51;36.20;25.60
23713;DHT22;12035;49.978;8.298;2022-07-29T07:32:50;36.40;25.30
23713;DHT22;12035;49.978;8.298;2022-07-29T07:37:47;36.30;23.80
23713;DHT22;12035;49.978;8.298;2022-07-29T07:42:44;36.30;24.20
23713;DHT22;12035;49.978;8.298;2022-07-29T07:47:41;36.30;24.30
23713;DHT22;12035;49.978;8.298;2022-07-29T07:52:48;36.30;24.40
23713;DHT22;12035;49.978;8.298;2022-07-29T07:57:46;36.00;23.90
23713;DHT22;12035;49.978;8.298;2022-07-29T08:02:44;36.10;24.30
23713;DHT22;12035;49.978;8.298;2022-07-29T08:07:41;36.20;24.20
23713;DHT22;12035;49.978;8.298;2022-07-29T08:12:40;36.50;24.10
23713;DHT22;12035;49.978;8.298;2022-07-29T08:17:37;36.80;23.70
23713;DHT22;12035;49.978;8.298;2022-07-29T08:22:34;37.10;24.00
23713;DHT22;12035;49.978;8.298;2022-07-29T08:27:31;37.20;23.40
23713;DHT22;12035;49.978;8.298;2022-07-29T08:32:30;37.30;23.20
23713;DHT22;12035;49.978;8.298;2022-07-29T08:37:27;37.40;23.30
23713;DHT22;12035;49.978;8.298;2022-07-29T08:42:24;37.50;23.40
23713;DHT22;12035;49.978;8.298;2022-07-29T08:47:21;37.60;23.50
23713;DHT22;12035;49.978;8.298;2022-07-29T08:52:25;37.70;23.50
23713;DHT22;12035;49.978;8.298;2022-07-29T08:57:23;37.70;23.30
23713;DHT22;12035;49.978;8.298;2022-07-29T09:02:22;37.80;23.20
23713;DHT22;12035;49.978;8.298;2022-07-29T09:07:19;37.70;23.00
23713;DHT22;12035;49.978;8.298;2022-07-29T09:12:18;37.80;23.40
23713;DHT22;12035;49.978;8.298;2022-07-29T09:17:17;37.90;23.50
23713;DHT22;12035;49.978;8.298;2022-07-29T09:22:29;38.10;23.60
23713;DHT22;12035;49.978;8.298;2022-07-29T09:27:29;38.20;23.50
23713;DHT22;12035;49.978;8.298;2022-07-29T09:32:27;38.20;23.20
23713;DHT22;12035;49.978;8.298;2022-07-29T09:37:28;38.00;23.30
23713;DHT22;12035;49.978;8.298;2022-07-29T09:42:30;37.90;23.50
23713;DHT22;12035;49.978;8.298;2022-07-29T09:47:43;37.90;23.60
23713;DHT22;12035;49.978;8.298;2022-07-29T09:52:46;37.80;23.70
23713;DHT22;12035;49.978;8.298;2022-07-29T09:57:46;37.70;23.60
23713;DHT22;12035;49.978;8.298;2022-07-29T10:02:46;37.50;23.80
23713;DHT22;12035;49.978;8.298;2022-07-29T10:07:45;37.20;23.80
23713;DHT22;12035;49.978;8.298;2022-07-29T10:12:52;36.90;23.80
23713;DHT22;12035;49.978;8.298;2022-07-29T10:17:51;36.60;24.20
23713;DHT22;12035;49.978;8.298;2022-07-29T10:22:49;36.50;24.30
23713;DHT22;12035;49.978;8.298;2022-07-29T10:27:48;36.40;24.60
23713;DHT22;12035;49.978;8.298;2022-07-29T10:33:08;36.50;24.80
23713;DHT22;12035;49.978;8.298;2022-07-29T10:38:27;36.70;24.90
23713;DHT22;12035;49.978;8.298;2022-07-29T10:43:36;36.80;24.90
23713;DHT22;12035;49.978;8.298;2022-07-29T10:48:34;37.00;24.80
23713;DHT22;12035;49.978;8.298;2022-07-29T10:53:47;37.10;24.80
23713;DHT22;12035;49.978;8.298;2022-07-29T11:04:59;36.80;24.70
23713;DHT22;12035;49.978;8.298;2022-07-29T11:10:22;36.40;24.70
23713;DHT22;12035;49.978;8.298;2022-07-29T11:15:22;36.30;25.30
23713;DHT22;12035;49.978;8.298;2022-07-29T11:20:32;36.30;25.40
23713;DHT22;12035;49.978;8.298;2022-07-29T11:25:31;36.30;25.50
23713;DHT22;12035;49.978;8.298;2022-07-29T11:30:51;36.40;25.40
23713;DHT22;12035;49.978;8.298;2022-07-29T11:36:08;36.40;25.20
23713;DHT22;12035;49.978;8.298;2022-07-29T11:41:20;36.50;25.20
23713;DHT22;12035;49.978;8.298;2022-07-29T11:46:43;36.50;25.30
23713;DHT22;12035;49.978;8.298;2022-07-29T11:51:42;36.50;25.30
23713;DHT22;12035;49.978;8.298;2022-07-29T11:56:41;36.50;25.30
23713;DHT22;12035;49.978;8.298;2022-07-29T12:01:56;36.50;25.50
23713;DHT22;12035;49.978;8.298;2022-07-29T12:06:59;36.60;25.40
23713;DHT22;12035;49.978;8.298;2022-07-29T12:11:57;36.60;25.30
23713;DHT22;12035;49.978;8.298;2022-07-29T12:16:57;36.60;25.10
23713;DHT22;12035;49.978;8.298;2022-07-29T12:21:55;36.60;25.10
23713;DHT22;12035;49.978;8.298;2022-07-29T12:26:55;36.50;25.00
23713;DHT22;12035;49.978;8.298;2022-07-29T12:31:55;36.50;25.00
23713;DHT22;12035;49.978;8.298;2022-07-29T12:36:54;36.40;25.10
23713;DHT22;12035;49.978;8.298;2022-07-29T12:41:52;36.30;25.00
23713;DHT22;12035;49.978;8.298;2022-07-29T12:47:02;36.10;25.30
23713;DHT22;12035;49.978;8.298;2022-07-29T12:52:00;36.00;25.50
23713;DHT22;12035;49.978;8.298;2022-07-29T12:56:58;36.00;25.60
23713;DHT22;12035;49.978;8.298;2022-07-29T13:01:56;36.00;25.70
23713;DHT22;12035;49.978;8.298;2022-07-29T13:07:00;36.10;25.50
23713;DHT22;12035;49.978;8.298;2022-07-29T13:12:06;36.20;25.40
23713;DHT22;12035;49.978;8.298;2022-07-29T13:17:06;36.20;25.20
23713;DHT22;12035;49.978;8.298;2022-07-29T13:22:06;36.30;25.20
23713;DHT22;12035;49.978;8.298;2022-07-29T13:27:03;36.20;25.10
23713;DHT22;12035;49.978;8.298;2022-07-29T13:32:00;36.10;25.10
23713;DHT22;12035;49.978;8.298;2022-07-29T13:36:57;36.00;25.20
23713;DHT22;12035;49.978;8.298;2022-07-29T13:41:56;36.00;25.40
23713;DHT22;12035;49.978;8.298;2022-07-29T13:46:53;35.90;26.10
23713;DHT22;12035;49.978;8.298;2022-07-29T13:51:51;35.90;26.20
23713;DHT22;12035;49.978;8.298;2022-07-29T13:56:49;35.90;26.50
23713;DHT22;12035;49.978;8.298;2022-07-29T14:01:47;35.80;26.60
23713;DHT22;12035;49.978;8.298;2022-07-29T14:06:44;35.80;26.60
23713;DHT22;12035;49.978;8.298;2022-07-29T14:11:41;35.60;26.70
23713;DHT22;12035;49.978;8.298;2022-07-29T14:16:39;35.50;26.80
23713;DHT22;12035;49.978;8.298;2022-07-29T14:21:37;35.30;26.80
23713;DHT22;12035;49.978;8.298;2022-07-29T14:26:34;35.10;26.70
23713;DHT22;12035;49.978;8.298;2022-07-29T14:31:31;35.00;26.80
23713;DHT22;12035;49.978;8.298;2022-07-29T14:36:29;34.90;27.10
23713;DHT22;12035;49.978;8.298;2022-07-29T14:41:27;34.80;27.40
23713;DHT22;12035;49.978;8.298;2022-07-29T14:46:25;34.70;27.50
23713;DHT22;12035;49.978;8.298;2022-07-29T14:51:21;34.50;27.50
23713;DHT22;12035;49.978;8.298;2022-07-29T14:56:19;34.40;28.10
23713;DHT22;12035;49.978;8.298;2022-07-29T15:01:17;34.30;28.70
23713;DHT22;12035;49.978;8.298;2022-07-29T15:06:14;34.20;29.30
23713;DHT22;12035;49.978;8.298;2022-07-29T15:11:11;34.10;29.40
23713;DHT22;12035;49.978;8.298;2022-07-29T15:16:09;34.00;29.60
23713;DHT22;12035;49.978;8.298;2022-07-29T15:21:07;34.00;29.50
23713;DHT22;12035;49.978;8.298;2022-07-29T15:26:04;34.00;30.10
23713;DHT22;12035;49.978;8.298;2022-07-29T15:31:01;33.80;29.80
23713;DHT22;12035;49.978;8.298;2022-07-29T15:35:58;33.60;29.70
23713;DHT22;12035;49.978;8.298;2022-07-29T15:40:57;33.40;28.90
23713;DHT22;12035;49.978;8.298;2022-07-29T15:45:54;33.20;28.80
23713;DHT22;12035;49.978;8.298;2022-07-29T15:51:08;33.10;29.10
23713;DHT22;12035;49.978;8.298;2022-07-29T15:56:07;33.00;29.10
23713;DHT22;12035;49.978;8.298;2022-07-29T16:01:04;32.80;29.00
23713;DHT22;12035;49.978;8.298;2022-07-29T16:06:01;32.70;29.00
23713;DHT22;12035;49.978;8.298;2022-07-29T16:10:58;32.70;29.10
23713;DHT22;12035;49.978;8.298;2022-07-29T16:15:56;32.60;28.80
23713;DHT22;12035;49.978;8.298;2022-07-29T16:20:53;32.70;28.80
23713;DHT22;12035;49.978;8.298;2022-07-29T16:25:51;32.90;28.80
23713;DHT22;12035;49.978;8.298;2022-07-29T16:30:48;33.10;28.40
23713;DHT22;12035;49.978;8.298;2022-07-29T16:35:47;33.30;28.20
23713;DHT22;12035;49.978;8.298;2022-07-29T16:40:44;33.50;27.80
23713;DHT22;12035;49.978;8.298;2022-07-29T16:45:41;33.50;27.90
23713;DHT22;12035;49.978;8.298;2022-07-29T16:50:38;33.60;28.60
23713;DHT22;12035;49.978;8.298;2022-07-29T16:55:37;33.60;29.00
23713;DHT22;12035;49.978;8.298;2022-07-29T17:00:34;33.50;29.50
23713;DHT22;12035;49.978;8.298;2022-07-29T17:05:31;33.50;29.80
23713;DHT22;12035;49.978;8.298;2022-07-29T17:10:29;33.40;30.30
23713;DHT22;12035;49.978;8.298;2022-07-29T17:15:27;33.10;30.60
23713;DHT22;12035;49.978;8.298;2022-07-29T17:20:24;32.80;30.50
23713;DHT22;12035;49.978;8.298;2022-07-29T17:25:22;32.50;33.00
23713;DHT22;12035;49.978;8.298;2022-07-29T17:30:19;32.10;33.80
23713;DHT22;12035;49.978;8.298;2022-07-29T17:35:18;31.60;35.20
23713;DHT22;12035;49.978;8.298;2022-07-29T17:40:32;31.10;37.20
23713;DHT22;12035;49.978;8.298;2022-07-29T17:45:29;30.80;38.40
23713;DHT22;12035;49.978;8.298;2022-07-29T17:50:28;30.70;38.90
23713;DHT22;12035;49.978;8.298;2022-07-29T17:55:25;30.60;39.40
23713;DHT22;12035;49.978;8.298;2022-07-29T18:00:22;30.70;39.50
23713;DHT22;12035;49.978;8.298;2022-07-29T18:05:19;30.60;41.40
23713;DHT22;12035;49.978;8.298;2022-07-29T18:10:17;30.30;40.60
23713;DHT22;12035;49.978;8.298;2022-07-29T18:15:15;29.90;40.50
23713;DHT22;12035;49.978;8.298;2022-07-29T18:20:12;29.60;41.00
23713;DHT22;12035;49.978;8.298;2022-07-29T18:25:09;29.20;41.20
23713;DHT22;12035;49.978;8.298;2022-07-29T18:30:08;29.00;41.30
23713;DHT22;12035;49.978;8.298;2022-07-29T18:35:06;28.90;41.60
23713;DHT22;12035;49.978;8.298;2022-07-29T18:40:04;28.80;42.00
23713;DHT22;12035;49.978;8.298;2022-07-29T18:45:02;28.80;42.00
23713;DHT22;12035;49.978;8.298;2022-07-29T18:50:02;28.80;42.10
23713;DHT22;12035;49.978;8.298;2022-07-29T18:54:59;28.80;42.50
23713;DHT22;12035;49.978;8.298;2022-07-29T18:59:56;28.60;42.10
23713;DHT22;12035;49.978;8.298;2022-07-29T19:04:54;28.50;42.40
23713;DHT22;12035;49.978;8.298;2022-07-29T19:09:52;28.40;42.60
23713;DHT22;12035;49.978;8.298;2022-07-29T19:14:49;28.30;43.10
23713;DHT22;12035;49.978;8.298;2022-07-29T19:19:46;28.20;43.10
23713;DHT22;12035;49.978;8.298;2022-07-29T19:24:48;28.10;43.00
23713;DHT22;12035;49.978;8.298;2022-07-29T19:29:46;28.10;43.40
23713;DHT22;12035;49.978;8.298;2022-07-29T19:34:43;28.10;44.20
23713;DHT22;12035;49.978;8.298;2022-07-29T19:40:00;28.20;44.10
23713;DHT22;12035;49.978;8.298;2022-07-29T19:44:59;28.30;44.30
23713;DHT22;12035;49.978;8.298;2022-07-29T19:49:56;28.40;44.50
23713;DHT22;12035;49.978;8.298;2022-07-29T19:54:54;28.50;44.20
23713;DHT22;12035;49.978;8.298;2022-07-29T19:59:52;28.50;44.20
23713;DHT22;12035;49.978;8.298;2022-07-29T20:04:50;28.60;44.30
23713;DHT22;12035;49.978;8.298;2022-07-29T20:09:48;28.60;44.60
23713;DHT22;12035;49.978;8.298;2022-07-29T20:14:45;28.60;44.70
23713;DHT22;12035;49.978;8.298;2022-07-29T20:19:42;28.60;44.80
23713;DHT22;12035;49.978;8.298;2022-07-29T20:24:40;28.60;45.50
23713;DHT22;12035;49.978;8.298;2022-07-29T20:29:38;28.60;45.70
23713;DHT22;12035;49.978;8.298;2022-07-29T20:34:35;28.60;46.00
23713;DHT22;12035;49.978;8.298;2022-07-29T20:39:32;28.50;46.00
23713;DHT22;12035;49.978;8.298;2022-07-29T20:44:31;28.50;46.10
23713;DHT22;12035;49.978;8.298;2022-07-29T20:49:28;28.50;46.60
23713;DHT22;12035;49.978;8.298;2022-07-29T20:54:25;28.50;46.40
23713;DHT22;12035;49.978;8.298;2022-07-29T20:59:22;28.50;46.60
23713;DHT22;12035;49.978;8.298;2022-07-29T21:04:21;28.50;46.80
23713;DHT22;12035;49.978;8.298;2022-07-29T21:09:18;28.50;46.90
23713;DHT22;12035;49.978;8.298;2022-07-29T21:14:15;28.40;46.70
23713;DHT22;12035;49.978;8.298;2022-07-29T21:19:25;28.40;47.20
23713;DHT22;12035;49.978;8.298;2022-07-29T21:24:22;28.40;47.50
23713;DHT22;12035;49.978;8.298;2022-07-29T21:29:19;28.30;47.40
23713;DHT22;12035;49.978;8.298;2022-07-29T21:34:16;28.20;47.50
23713;DHT22;12035;49.978;8.298;2022-07-29T21:39:14;28.10;47.50
23713;DHT22;12035;49.978;8.298;2022-07-29T21:44:12;28.10;47.50
23713;DHT22;12035;49.978;8.298;2022-07-29T21:49:09;28.10;46.90
23713;DHT22;12035;49.978;8.298;2022-07-29T21:54:06;28.00;46.50
23713;DHT22;12035;49.978;8.298;2022-07-29T21:59:04;28.00;46.00
23713;DHT22;12035;49.978;8.298;2022-07-29T22:04:02;27.90;46.10
23713;DHT22;12035;49.978;8.298;2022-07-29T22:08:59;27.80;45.90
23713;DHT22;12035;49.978;8.298;2022-07-29T22:13:56;27.80;45.70
23713;DHT22;12035;49.978;8.298;2022-07-29T22:18:55;27.70;45.80
23713;DHT22;12035;49.978;8.298;2022-07-29T22:23:52;27.70;45.80
23713;DHT22;12035;49.978;8.298;2022-07-29T22:28:49;27.70;45.80
23713;DHT22;12035;49.978;8.298;2022-07-29T22:33:49;27.70;45.70
23713;DHT22;12035;49.978;8.298;2022-07-29T22:38:47;27.60;45.40
23713;DHT22;12035;49.978;8.298;2022-07-29T22:43:44;27.60;45.00
23713;DHT22;12035;49.978;8.298;2022-07-29T22:48:41;27.50;44.50
23713;DHT22;12035;49.978;8.298;2022-07-29T22:53:38;27.40;44.40
23713;DHT22;12035;49.978;8.298;2022-07-29T22:58:37;27.30;44.70
23713;DHT22;12035;49.978;8.298;2022-07-29T23:03:34;27.30;45.00
23713;DHT22;12035;49.978;8.298;2022-07-29T23:08:32;27.30;45.00
23713;DHT22;12035;49.978;8.298;2022-07-29T23:13:29;27.30;44.80
23713;DHT22;12035;49.978;8.298;2022-07-29T23:18:27;27.20;44.90
23713;DHT22;12035;49.978;8.298;2022-07-29T23:23:24;27.10;45.00
23713;DHT22;12035;49.978;8.298;2022-07-29T23:28:21;27.10;45.20
23713;DHT22;12035;49.978;8.298;2022-07-29T23:33:18;27.00;45.10
23713;DHT22;12035;49.978;8.298;2022-07-29T23:38:16;27.00;45.10
23713;DHT22;12035;49.978;8.298;2022-07-29T23:43:13;27.00;45.30
23713;DHT22;12035;49.978;8.298;2022-07-29T23:48:10;27.00;45.30
23713;DHT22;12035;49.978;8.298;2022-07-29T23:53:09;26.90;45.40
23713;DHT22;12035;49.978;8.298;2022-07-29T23:58:07;26.90;45.50
